createdAt,value
2018-08-11T00:00:16.886Z,43.80
2018-08-11T00:02:45.510Z,43.90
2018-08-11T00:05:13.982Z,44.30
2018-08-11T00:07:42.429Z,44.80
2018-08-11T00:10:10.971Z,45.40
2018-08-11T00:12:39.453Z,46.20
2018-08-11T00:15:11.290Z,47.00
2018-08-11T00:17:40.210Z,48.30
2018-08-11T00:20:11.439Z,48.60
2018-08-11T00:22:40.744Z,49.00
2018-08-11T00:25:17.037Z,49.60
2018-08-11T00:27:45.560Z,49.20
2018-08-11T00:30:16.459Z,49.30
2018-08-11T00:32:44.899Z,49.70
2018-08-11T00:35:14.393Z,50.10
2018-08-11T00:37:43.415Z,50.20
2018-08-11T00:40:15.886Z,49.50
2018-08-11T00:42:45.393Z,48.70
2018-08-11T00:45:14.934Z,48.80
2018-08-11T00:47:43.623Z,47.50
2018-08-11T00:50:16.939Z,46.40
2018-08-11T00:52:45.362Z,45.80
2018-08-11T00:55:14.424Z,45.30
2018-08-11T00:57:43.032Z,45.10
2018-08-11T01:00:14.172Z,45.20
2018-08-11T01:02:42.846Z,45.40
2018-08-11T01:05:14.390Z,45.50
2018-08-11T01:07:43.523Z,45.50
2018-08-11T01:10:12.553Z,45.90
2018-08-11T01:12:42.005Z,45.50
2018-08-11T01:15:12.604Z,45.60
2018-08-11T01:17:40.966Z,45.90
2018-08-11T01:20:10.623Z,45.70
2018-08-11T01:22:39.703Z,47.70
2018-08-11T01:25:08.525Z,49.10
2018-08-11T01:27:37.207Z,49.90
2018-08-11T01:30:07.957Z,51.10
2018-08-11T01:32:36.386Z,51.30
2018-08-11T01:35:05.493Z,52.00
2018-08-11T01:37:34.155Z,51.60
2018-08-11T01:40:02.555Z,51.50
2018-08-11T01:42:31.008Z,51.40
2018-08-11T01:44:59.353Z,51.10
2018-08-11T01:47:27.765Z,50.90
2018-08-11T01:49:56.170Z,50.90
2018-08-11T01:52:24.570Z,50.90
2018-08-11T01:54:53.105Z,50.90
2018-08-11T01:57:21.479Z,50.60
2018-08-11T01:59:49.841Z,51.10
2018-08-11T02:02:18.223Z,51.70
2018-08-11T02:04:46.615Z,52.00
2018-08-11T02:07:14.985Z,52.40
2018-08-11T02:09:43.369Z,51.90
2018-08-11T02:12:11.785Z,51.90
2018-08-11T02:14:40.154Z,51.90
2018-08-11T02:17:08.545Z,51.70
2018-08-11T02:19:36.997Z,51.30
2018-08-11T02:22:05.422Z,51.00
2018-08-11T02:24:33.841Z,49.70
2018-08-11T02:27:02.251Z,49.00
2018-08-11T02:29:30.614Z,48.30
2018-08-11T02:31:59.212Z,47.60
2018-08-11T02:34:27.640Z,47.40
2018-08-11T02:36:55.998Z,47.10
2018-08-11T02:39:24.393Z,46.70
2018-08-11T02:41:52.802Z,46.60
2018-08-11T02:44:21.170Z,46.60
2018-08-11T02:46:49.567Z,46.50
2018-08-11T02:49:17.987Z,46.50
2018-08-11T02:51:46.387Z,46.60
2018-08-11T02:54:14.803Z,46.30
2018-08-11T02:56:43.216Z,46.60
2018-08-11T02:59:11.629Z,46.80
2018-08-11T03:01:40.114Z,47.10
2018-08-11T03:04:08.469Z,49.10
2018-08-11T03:06:36.855Z,49.80
2018-08-11T03:09:07.739Z,50.30
2018-08-11T03:11:36.203Z,50.60
2018-08-11T03:14:04.991Z,51.20
2018-08-11T03:16:33.279Z,51.40
2018-08-11T03:19:01.718Z,52.00
2018-08-11T03:21:30.118Z,52.00
2018-08-11T03:23:58.478Z,52.40
2018-08-11T03:26:26.868Z,53.10
2018-08-11T03:28:55.253Z,53.10
2018-08-11T03:31:23.643Z,53.30
2018-08-11T03:33:52.031Z,53.50
2018-08-11T03:36:20.536Z,53.10
2018-08-11T03:38:48.954Z,53.20
2018-08-11T03:41:17.303Z,52.80
2018-08-11T03:43:45.793Z,52.40
2018-08-11T03:46:14.148Z,52.40
2018-08-11T03:48:42.574Z,52.30
2018-08-11T03:51:10.925Z,52.50
2018-08-11T03:53:39.400Z,52.70
2018-08-11T03:56:07.791Z,52.90
2018-08-11T03:58:36.198Z,53.30
2018-08-11T04:01:04.603Z,53.30
2018-08-11T04:03:33.027Z,53.10
2018-08-11T04:06:01.383Z,53.10
2018-08-11T04:08:29.801Z,53.40
2018-08-11T04:10:58.154Z,53.40
2018-08-11T04:13:26.539Z,53.60
2018-08-11T04:15:54.890Z,54.20
2018-08-11T04:18:23.266Z,54.10
2018-08-11T04:20:51.613Z,54.20
2018-08-11T04:23:19.982Z,54.60
2018-08-11T04:25:48.370Z,55.60
2018-08-11T04:28:16.806Z,56.50
2018-08-11T04:30:45.341Z,56.90
2018-08-11T04:33:13.722Z,57.20
2018-08-11T04:35:45.044Z,57.40
2018-08-11T04:38:13.419Z,57.70
2018-08-11T04:40:41.777Z,58.00
2018-08-11T04:43:10.148Z,58.10
2018-08-11T04:45:38.510Z,58.20
2018-08-11T04:48:06.942Z,58.20
2018-08-11T04:50:35.306Z,57.70
2018-08-11T04:53:03.759Z,56.90
2018-08-11T04:55:32.238Z,56.10
2018-08-11T04:58:00.601Z,55.40
2018-08-11T05:00:29.083Z,55.30
2018-08-11T05:02:57.483Z,55.00
2018-08-11T05:05:26.003Z,54.90
2018-08-11T05:07:54.425Z,54.70
2018-08-11T05:10:22.856Z,54.50
2018-08-11T05:12:51.257Z,54.30
2018-08-11T05:15:19.661Z,53.80
2018-08-11T05:17:48.053Z,53.70
2018-08-11T05:20:23.227Z,53.60
2018-08-11T05:22:51.633Z,53.20
2018-08-11T05:25:20.001Z,53.10
2018-08-11T05:27:48.474Z,52.50
2018-08-11T05:30:16.922Z,52.10
2018-08-11T05:32:45.281Z,51.90
2018-08-11T05:35:13.694Z,51.70
2018-08-11T05:37:42.274Z,51.30
2018-08-11T05:42:45.312Z,51.70
2018-08-11T05:45:13.920Z,52.10
2018-08-11T05:47:42.323Z,52.00
2018-08-11T05:50:10.716Z,52.00
2018-08-11T05:52:39.100Z,52.00
2018-08-11T05:55:07.576Z,52.30
2018-08-11T05:57:35.914Z,53.00
2018-08-11T06:00:06.441Z,52.20
2018-08-11T06:02:34.801Z,52.30
2018-08-11T06:05:03.279Z,52.40
2018-08-11T06:07:31.656Z,52.30
2018-08-11T06:10:00.238Z,52.10
2018-08-11T06:12:28.605Z,51.90
2018-08-11T06:14:57.003Z,52.00
2018-08-11T06:17:25.366Z,51.90
2018-08-11T06:19:53.837Z,51.60
2018-08-11T06:22:22.219Z,51.40
2018-08-11T06:24:50.608Z,51.40
2018-08-11T06:27:19.042Z,51.30
2018-08-11T06:29:47.450Z,51.40
2018-08-11T06:32:15.874Z,51.20
2018-08-11T06:34:44.402Z,51.40
2018-08-11T06:37:12.791Z,51.60
2018-08-11T06:39:41.192Z,51.70
2018-08-11T06:42:09.561Z,51.40
2018-08-11T06:44:37.959Z,51.30
2018-08-11T06:47:06.351Z,51.20
2018-08-11T06:49:34.779Z,50.90
2018-08-11T06:52:03.182Z,50.60
2018-08-11T06:54:31.572Z,50.20
2018-08-11T06:56:59.962Z,49.90
2018-08-11T06:59:28.350Z,49.30
2018-08-11T07:01:56.745Z,49.50
2018-08-11T07:04:25.209Z,49.70
2018-08-11T07:06:53.667Z,50.20
2018-08-11T07:09:22.225Z,50.30
2018-08-11T07:11:50.617Z,50.20
2018-08-11T07:14:18.975Z,49.70
2018-08-11T07:16:47.418Z,50.10
2018-08-11T07:19:16.063Z,48.90
2018-08-11T07:21:44.817Z,48.20
2018-08-11T07:24:13.180Z,48.90
2018-08-11T07:26:41.627Z,49.10
2018-08-11T07:29:09.967Z,49.80
2018-08-11T07:31:38.389Z,50.10
2018-08-11T07:34:06.779Z,50.00
2018-08-11T07:36:35.271Z,50.00
2018-08-11T07:39:04.182Z,49.80
2018-08-11T07:41:32.622Z,49.90
2018-08-11T07:44:01.073Z,50.60
2018-08-11T07:46:29.599Z,51.20
2018-08-11T07:48:57.998Z,52.20
2018-08-11T07:51:26.458Z,51.00
2018-08-11T07:53:54.971Z,50.10
2018-08-11T07:56:23.440Z,49.80
2018-08-11T07:58:51.819Z,48.80
2018-08-11T08:01:20.290Z,48.30
2018-08-11T08:03:48.667Z,48.20
2018-08-11T08:06:17.175Z,49.10
2018-08-11T08:08:45.564Z,50.00
2018-08-11T08:11:14.009Z,50.50
2018-08-11T08:13:42.573Z,50.20
2018-08-11T08:16:11.049Z,49.60
2018-08-11T08:18:39.487Z,49.10
2018-08-11T08:21:07.943Z,48.70
2018-08-11T08:23:36.399Z,48.40
2018-08-11T08:26:04.989Z,47.80
2018-08-11T08:28:33.448Z,47.80
2018-08-11T08:31:01.938Z,48.10
2018-08-11T08:33:30.697Z,48.30
2018-08-11T08:35:59.506Z,48.30
2018-08-11T08:38:28.224Z,48.30
2018-08-11T08:40:56.701Z,47.90
2018-08-11T08:43:25.231Z,47.70
2018-08-11T08:45:53.627Z,47.30
2018-08-11T08:48:22.042Z,47.00
2018-08-11T08:50:50.445Z,45.70
2018-08-11T08:53:19.016Z,44.60
2018-08-11T08:55:47.394Z,43.70
2018-08-11T08:58:15.791Z,43.70
2018-08-11T09:00:44.178Z,44.30
2018-08-11T09:03:12.639Z,45.00
2018-08-11T09:05:41.106Z,45.20
2018-08-11T09:08:09.738Z,45.40
2018-08-11T09:10:38.178Z,45.40
2018-08-11T09:13:07.032Z,45.50
2018-08-11T09:15:35.562Z,45.60
2018-08-11T09:18:03.996Z,45.70
2018-08-11T09:20:32.382Z,45.40
2018-08-11T09:23:00.793Z,45.60
2018-08-11T09:25:29.609Z,45.60
2018-08-11T09:27:58.071Z,45.20
2018-08-11T09:30:26.558Z,45.10
2018-08-11T09:32:55.098Z,44.50
2018-08-11T09:35:23.484Z,44.00
2018-08-11T09:37:51.882Z,43.30
2018-08-11T09:40:20.278Z,42.70
2018-08-11T09:42:48.717Z,42.10
2018-08-11T09:45:17.279Z,40.90
2018-08-11T09:47:45.751Z,40.50
2018-08-11T09:50:14.186Z,40.60
2018-08-11T09:52:42.778Z,40.30
2018-08-11T09:55:11.198Z,40.70
2018-08-11T09:57:39.625Z,40.70
2018-08-11T10:00:09.267Z,40.80
2018-08-11T10:02:37.715Z,40.30
2018-08-11T10:05:06.455Z,40.90
2018-08-11T10:07:35.067Z,41.10
2018-08-11T10:10:03.553Z,40.70
2018-08-11T10:12:31.993Z,40.60
2018-08-11T10:15:00.654Z,40.50
2018-08-11T10:17:29.429Z,40.20
2018-08-11T10:19:57.806Z,40.00
2018-08-11T10:22:26.206Z,39.70
2018-08-11T10:24:54.678Z,40.00
2018-08-11T10:27:23.085Z,39.60
2018-08-11T10:29:51.509Z,39.60
2018-08-11T10:32:19.912Z,39.40
2018-08-11T10:34:48.309Z,39.40
2018-08-11T10:37:16.686Z,40.70
2018-08-11T10:39:45.245Z,40.90
2018-08-11T10:42:13.682Z,40.10
2018-08-11T10:44:42.098Z,39.60
2018-08-11T10:47:10.611Z,39.00
2018-08-11T10:49:38.915Z,38.40
2018-08-11T10:52:07.361Z,37.80
2018-08-11T10:54:35.832Z,38.00
2018-08-11T10:58:07.253Z,39.00
2018-08-11T11:00:35.719Z,38.50
2018-08-11T11:03:04.796Z,39.90
2018-08-11T11:05:33.246Z,41.30
2018-08-11T11:08:01.606Z,40.60
2018-08-11T11:10:30.046Z,40.20
2018-08-11T11:12:58.494Z,39.00
2018-08-11T11:15:26.935Z,37.30
2018-08-11T11:17:55.426Z,34.80
2018-08-11T11:20:24.118Z,33.50
2018-08-11T11:22:52.612Z,34.50
2018-08-11T11:25:21.911Z,34.30
2018-08-11T11:27:50.591Z,32.50
2018-08-11T11:30:18.973Z,32.40
2018-08-11T11:32:47.404Z,32.80
2018-08-11T11:35:15.840Z,33.10
2018-08-11T11:37:44.302Z,31.30
2018-08-11T11:40:12.701Z,30.30
2018-08-11T11:42:41.252Z,31.60
2018-08-11T11:45:09.668Z,32.20
2018-08-11T11:47:38.205Z,32.10
2018-08-11T11:50:06.939Z,31.20
2018-08-11T11:52:35.350Z,30.70
2018-08-11T11:55:04.710Z,30.60
2018-08-11T11:57:33.158Z,31.20
2018-08-11T12:00:01.631Z,29.90
2018-08-11T12:02:30.141Z,28.80
2018-08-11T12:04:58.615Z,27.80
2018-08-11T12:07:27.122Z,27.40
2018-08-11T12:09:55.553Z,28.00
2018-08-11T12:12:24.001Z,28.10
2018-08-11T12:14:52.446Z,27.50
2018-08-11T12:17:20.884Z,27.20
2018-08-11T12:19:49.303Z,27.00
2018-08-11T12:22:17.780Z,27.50
2018-08-11T12:24:46.350Z,26.10
2018-08-11T12:27:15.111Z,24.90
2018-08-11T12:29:43.769Z,24.90
2018-08-11T12:32:12.188Z,25.20
2018-08-11T12:34:40.674Z,25.10
2018-08-11T12:37:09.110Z,24.60
2018-08-11T12:39:37.591Z,24.70
2018-08-11T12:42:06.065Z,23.90
2018-08-11T12:44:34.714Z,24.90
2018-08-11T12:47:03.812Z,24.70
2018-08-11T12:49:32.307Z,23.20
2018-08-11T12:52:00.713Z,22.70
2018-08-11T12:54:29.990Z,22.60
2018-08-11T12:56:58.631Z,23.20
2018-08-11T12:59:27.045Z,24.00
2018-08-11T13:01:55.573Z,26.30
2018-08-11T13:04:24.841Z,27.20
2018-08-11T13:06:55.028Z,27.10
2018-08-11T13:09:23.553Z,26.60
2018-08-11T13:11:52.231Z,25.40
2018-08-11T13:14:20.667Z,25.20
2018-08-11T13:16:49.396Z,24.60
2018-08-11T13:19:17.930Z,23.40
2018-08-11T13:21:46.387Z,21.60
2018-08-11T13:24:14.873Z,21.40
2018-08-11T13:26:43.341Z,21.80
2018-08-11T13:29:11.841Z,23.30
2018-08-11T13:31:40.295Z,24.00
2018-08-11T13:34:08.766Z,24.80
2018-08-11T13:36:37.349Z,25.60
2018-08-11T13:39:08.340Z,25.10
2018-08-11T13:41:46.381Z,24.10
2018-08-11T13:44:16.328Z,24.40
2018-08-11T13:46:44.762Z,25.40
2018-08-11T13:49:13.304Z,25.90
2018-08-11T13:51:42.810Z,25.30
2018-08-11T13:54:11.336Z,24.10
2018-08-11T13:56:39.977Z,23.00
2018-08-11T13:59:08.786Z,22.30
2018-08-11T14:01:37.270Z,21.50
2018-08-11T14:04:05.821Z,20.90
2018-08-11T14:06:34.466Z,20.60
2018-08-11T14:09:03.346Z,22.70
2018-08-11T14:11:31.794Z,25.00
2018-08-11T14:14:00.191Z,26.80
2018-08-11T14:16:28.665Z,28.10
2018-08-11T14:18:57.175Z,27.60
2018-08-11T14:21:25.595Z,26.20
2018-08-11T14:23:54.033Z,24.40
2018-08-11T14:26:22.498Z,23.10
2018-08-11T14:28:51.002Z,21.80
2018-08-11T14:31:19.495Z,21.10
2018-08-11T14:33:48.131Z,22.40
2018-08-11T14:36:16.605Z,23.10
2018-08-11T14:38:45.167Z,22.60
2018-08-11T14:41:13.579Z,22.20
2018-08-11T14:43:42.011Z,21.50
2018-08-11T14:46:10.534Z,20.50
2018-08-11T14:48:39.123Z,21.00
2018-08-11T14:51:07.631Z,21.40
2018-08-11T14:53:36.057Z,23.10
2018-08-11T14:56:04.725Z,24.70
2018-08-11T14:58:33.307Z,26.20
2018-08-11T15:01:01.910Z,26.50
2018-08-11T15:03:30.370Z,25.60
2018-08-11T15:05:58.791Z,24.00
2018-08-11T15:08:27.192Z,21.80
2018-08-11T15:10:55.784Z,20.60
2018-08-11T15:13:24.175Z,19.90
2018-08-11T15:15:52.699Z,19.70
2018-08-11T15:18:21.096Z,19.70
2018-08-11T15:20:49.598Z,21.00
2018-08-11T15:23:18.244Z,21.00
2018-08-11T15:25:46.751Z,20.90
2018-08-11T15:28:15.203Z,19.60
2018-08-11T15:30:43.629Z,18.90
2018-08-11T15:33:12.008Z,18.20
2018-08-11T15:35:40.450Z,18.50
2018-08-11T15:38:08.938Z,18.10
2018-08-11T15:40:37.384Z,17.60
2018-08-11T15:43:05.833Z,17.50
2018-08-11T15:45:34.267Z,17.30
2018-08-11T15:48:02.687Z,17.20
2018-08-11T15:50:31.148Z,18.00
2018-08-11T15:52:59.545Z,18.20
2018-08-11T15:55:28.147Z,18.20
2018-08-11T15:57:56.547Z,18.10
2018-08-11T16:00:25.148Z,17.60
2018-08-11T16:02:53.611Z,16.70
2018-08-11T16:05:22.214Z,16.70
2018-08-11T16:07:50.807Z,16.80
2018-08-11T16:10:19.212Z,16.10
2018-08-11T16:12:47.669Z,15.80
2018-08-11T16:15:16.130Z,16.00
2018-08-11T16:17:44.617Z,16.80
2018-08-11T16:20:13.033Z,17.30
2018-08-11T16:22:42.147Z,17.80
2018-08-11T16:25:10.578Z,18.70
2018-08-11T16:27:39.140Z,19.40
2018-08-11T16:31:21.545Z,19.20
2018-08-11T16:33:50.001Z,19.80
2018-08-11T16:36:18.523Z,20.20
2018-08-11T16:38:48.108Z,20.20
2018-08-11T16:41:16.565Z,20.10
2018-08-11T16:43:44.974Z,20.10
2018-08-11T16:46:13.375Z,19.80
2018-08-11T16:48:44.738Z,19.80
2018-08-11T16:51:15.943Z,19.80
2018-08-11T16:53:46.488Z,20.30
2018-08-11T16:56:15.337Z,20.40
2018-08-11T16:58:43.803Z,20.30
2018-08-11T17:01:12.242Z,20.30
2018-08-11T17:03:40.830Z,20.20
2018-08-11T17:07:34.485Z,20.70
2018-08-11T17:10:03.014Z,22.20
2018-08-11T17:12:31.428Z,22.40
2018-08-11T17:14:59.887Z,22.50
2018-08-11T17:17:28.272Z,22.70
2018-08-11T17:19:56.657Z,22.60
2018-08-11T17:22:25.090Z,22.30
2018-08-11T17:24:53.779Z,22.70
2018-08-11T17:27:22.186Z,22.80
2018-08-11T17:29:50.714Z,23.10
2018-08-11T17:32:19.149Z,23.20
2018-08-11T17:34:47.650Z,23.20
2018-08-11T17:37:16.125Z,23.30
2018-08-11T17:39:44.577Z,23.50
2018-08-11T17:42:13.011Z,24.10
2018-08-11T17:44:41.494Z,25.20
2018-08-11T17:47:09.948Z,26.10
2018-08-11T17:49:38.938Z,26.60
2018-08-11T17:52:07.537Z,27.00
2018-08-11T17:54:36.191Z,27.60
2018-08-11T17:57:04.643Z,28.20
2018-08-11T17:59:33.100Z,29.20
2018-08-11T18:02:01.526Z,29.00
2018-08-11T18:04:30.036Z,29.60
2018-08-11T18:06:58.554Z,29.80
2018-08-11T18:09:26.926Z,29.90
2018-08-11T18:11:55.359Z,30.10
2018-08-11T18:14:23.799Z,30.00
2018-08-11T18:16:52.281Z,30.10
2018-08-11T18:19:20.884Z,30.20
2018-08-11T18:21:49.374Z,30.60
2018-08-11T18:24:17.748Z,31.00
2018-08-11T18:26:46.490Z,31.30
2018-08-11T18:29:14.970Z,31.20
2018-08-11T18:31:43.922Z,31.30
2018-08-11T18:34:12.428Z,31.60
2018-08-11T18:36:40.897Z,31.90
2018-08-11T18:39:11.515Z,32.20
2018-08-11T18:41:40.666Z,32.40
2018-08-11T18:44:09.344Z,32.80
2018-08-11T18:46:38.165Z,33.20
2018-08-11T18:49:07.011Z,33.30
2018-08-11T18:51:35.559Z,33.90
2018-08-11T18:54:04.164Z,34.10
2018-08-11T18:56:32.657Z,34.40
2018-08-11T18:59:01.230Z,34.50
2018-08-11T19:01:29.713Z,34.80
2018-08-11T19:03:58.181Z,34.90
2018-08-11T19:06:26.766Z,34.90
2018-08-11T19:08:55.278Z,35.10
2018-08-11T19:11:23.772Z,35.40
2018-08-11T19:13:52.209Z,35.50
2018-08-11T19:16:20.715Z,35.70
2018-08-11T19:18:49.303Z,36.10
2018-08-11T19:21:17.735Z,36.30
2018-08-11T19:23:46.262Z,36.50
2018-08-11T19:26:14.820Z,36.60
2018-08-11T19:28:43.267Z,36.70
2018-08-11T19:31:11.771Z,36.60
2018-08-11T19:33:40.225Z,36.80
2018-08-11T19:36:08.718Z,37.00
2018-08-11T19:38:37.665Z,37.20
2018-08-11T19:41:06.167Z,37.20
2018-08-11T19:43:34.754Z,37.40
2018-08-11T19:46:03.198Z,37.40
2018-08-11T19:48:31.764Z,37.80
2018-08-11T19:51:00.256Z,37.80
2018-08-11T19:54:53.245Z,38.00
2018-08-11T19:57:22.227Z,38.10
2018-08-11T19:59:50.774Z,38.50
2018-08-11T20:02:19.195Z,38.70
2018-08-11T20:04:47.692Z,38.80
2018-08-11T20:07:16.176Z,38.80
2018-08-11T20:09:45.133Z,38.50
2018-08-11T20:12:13.675Z,38.70
2018-08-11T20:14:42.164Z,38.80
2018-08-11T20:17:10.679Z,39.00
2018-08-11T20:19:39.235Z,39.20
2018-08-11T20:22:14.466Z,39.30
2018-08-11T20:24:42.882Z,39.40
2018-08-11T20:27:15.129Z,39.40
2018-08-11T20:29:43.690Z,39.50
2018-08-11T20:32:13.979Z,39.70
2018-08-11T20:34:43.288Z,39.80
2018-08-11T20:37:13.004Z,39.90
2018-08-11T20:39:41.954Z,40.00
2018-08-11T20:42:10.680Z,40.20
2018-08-11T20:44:39.515Z,40.40
2018-08-11T20:47:08.193Z,40.50
2018-08-11T20:49:36.715Z,40.60
2018-08-11T20:52:05.405Z,40.80
2018-08-11T20:54:34.315Z,40.90
2018-08-11T20:57:04.922Z,41.00
2018-08-11T20:59:37.701Z,41.40
2018-08-11T21:02:06.574Z,41.70
2018-08-11T21:04:36.324Z,42.10
2018-08-11T21:07:05.000Z,42.10
2018-08-11T21:09:33.470Z,42.00
2018-08-11T21:12:02.033Z,42.30
2018-08-11T21:14:30.548Z,42.60
2018-08-11T21:16:59.564Z,43.00
2018-08-11T21:19:28.062Z,43.00
2018-08-11T21:21:56.612Z,43.30
2018-08-11T21:24:31.570Z,43.40
2018-08-11T21:27:00.034Z,44.20
2018-08-11T21:29:28.504Z,43.70
2018-08-11T21:31:57.082Z,43.90
2018-08-11T21:34:25.566Z,44.10
2018-08-11T21:36:54.044Z,44.60
2018-08-11T21:39:22.481Z,45.00
2018-08-11T21:41:50.938Z,45.40
2018-08-11T21:44:19.397Z,45.60
2018-08-11T21:46:47.804Z,45.90
2018-08-11T21:49:16.635Z,46.10
2018-08-11T21:51:45.228Z,46.20
2018-08-11T21:54:14.098Z,46.10
2018-08-11T21:56:42.622Z,46.00
2018-08-11T21:59:11.072Z,46.20
2018-08-11T22:01:40.229Z,46.30
2018-08-11T22:04:08.658Z,46.50
2018-08-11T22:06:37.158Z,46.80
2018-08-11T22:09:10.033Z,47.10
2018-08-11T22:11:38.541Z,47.40
2018-08-11T22:14:07.714Z,47.60
2018-08-11T22:16:36.234Z,47.80
2018-08-11T22:19:04.722Z,47.90
2018-08-11T22:21:33.218Z,48.30
2018-08-11T22:24:01.704Z,48.70
2018-08-11T22:26:30.166Z,48.90
2018-08-11T22:28:58.661Z,49.30
2018-08-11T22:31:27.107Z,49.80
2018-08-11T22:33:55.552Z,51.10
2018-08-11T22:36:24.059Z,50.40
2018-08-11T22:38:53.536Z,50.70
2018-08-11T22:41:21.987Z,50.70
2018-08-11T22:43:50.654Z,51.10
2018-08-11T22:46:19.091Z,51.10
2018-08-11T22:48:47.731Z,51.70
2018-08-11T22:51:16.261Z,51.80
2018-08-11T22:53:44.717Z,51.90
2018-08-11T22:56:13.246Z,51.50
2018-08-11T22:58:41.836Z,52.10
2018-08-11T23:01:10.240Z,51.50
2018-08-11T23:03:38.733Z,52.30
2018-08-11T23:06:07.191Z,53.40
2018-08-11T23:08:35.791Z,53.60
2018-08-11T23:11:04.404Z,53.80
2018-08-11T23:13:32.869Z,53.60
2018-08-11T23:16:04.196Z,53.50
2018-08-11T23:18:32.671Z,53.90
2018-08-11T23:21:01.175Z,53.90
2018-08-11T23:23:29.590Z,54.20
2018-08-11T23:25:57.961Z,54.70
2018-08-11T23:28:26.440Z,55.00
2018-08-11T23:30:54.888Z,55.10
2018-08-11T23:33:23.417Z,55.70
2018-08-11T23:35:51.935Z,56.00
2018-08-11T23:38:20.394Z,56.80
2018-08-11T23:40:48.795Z,56.80
2018-08-11T23:43:17.263Z,56.90
2018-08-11T23:45:45.839Z,56.90
2018-08-11T23:48:14.505Z,56.80
2018-08-11T23:50:42.926Z,57.60
2018-08-11T23:53:11.333Z,57.80
2018-08-11T23:55:39.758Z,58.50
2018-08-11T23:58:08.261Z,58.90
